PAAK

Details ICAO PAAK (AKB)
Name Atka
Region USA (Alaska)
Timezone America/Adak (UTC-10.0)
Plans Departing 8
Arriving 9
Stats Elevation 56 ft / 17 m (AMSL)
Location 52.220349° -174.206350°
Runways 1
Magnetic Variation 5.815° E
Sunrise 2017-12-17 19:43:04 UTC / 2017-12-17 09:43:04 Local
Sunset 2017-12-18 03:26:02 UTC / 2017-12-17 17:26:02 Local
Advertisement - Login to hide

Runways

ID Width Length Bearing (true) Bearing (mag) Surface Threshold Offset Overrun Length
15 85 ft / 26 m 3,286 ft / 1,002 m 168.36° 162.55° Asphalt 0 ft / 0 m 0 ft / 0 m
33 85 ft / 26 m 3,286 ft / 1,002 m 348.36° 342.55° Asphalt 0 ft / 0 m 0 ft / 0 m

Map

Weather


0- 5 10 15 20 25 30 35+ Temperature / ° C

Clouds and Precipitation
Forecast for 2017-12-18 12:00 UTC. Updated 2 hours ago

Ground ~20,000 ft ~40,000 ft Winds

METAR

PAAK 180841Z AUTO 16032G47KT 2 1/2SM RA BR OVC014 06/04 A2968 RMK AO2 PK WND 17048/0823 P0010

TAF

Not found

Frequencies

Recorded 135.55 MHz AWOS 3
Unicom 122.90 MHz CTAF
Warning: Do not use this data for real-world aviation or navigation. No guarantee of current accuracy is given.